createdAt,value
2023-04-16T00:00:22.690Z,97903.94
2023-04-16T00:05:25.246Z,97901.31
2023-04-16T00:15:44.404Z,97906.69
2023-04-16T00:20:47.645Z,97906.06
2023-04-16T00:25:50.284Z,97910.69
2023-04-16T00:30:53.140Z,97910.88
2023-04-16T00:35:59.140Z,97906.75
2023-04-16T00:41:01.739Z,97906.72
2023-04-16T00:46:07.298Z,97912.44
2023-04-16T00:51:11.077Z,97916.13
2023-04-16T00:56:14.055Z,97909.69
2023-04-16T01:01:16.815Z,97922.66
2023-04-16T01:06:19.900Z,97911.53
2023-04-16T01:11:22.720Z,97915.81
2023-04-16T01:16:26.982Z,97917.00
2023-04-16T01:21:30.110Z,97916.75
2023-04-16T01:26:32.891Z,97918.53
2023-04-16T01:31:35.842Z,97918.75
2023-04-16T01:36:58.978Z,97918.75
2023-04-16T01:42:02.549Z,97921.16
2023-04-16T01:47:05.183Z,97932.47
2023-04-16T01:52:08.736Z,97927.75
2023-04-16T01:57:11.408Z,97918.91
2023-04-16T02:02:16.551Z,97919.81
2023-04-16T02:07:19.291Z,97923.28
2023-04-16T02:12:21.840Z,97936.38
2023-04-16T02:17:24.717Z,97932.28
2023-04-16T02:22:38.124Z,97929.50
2023-04-16T02:27:40.948Z,97933.81
2023-04-16T02:32:59.644Z,97939.16
2023-04-16T02:38:03.542Z,97933.63
2023-04-16T02:43:06.103Z,97939.38
2023-04-16T02:48:09.810Z,97937.59
2023-04-16T02:53:12.324Z,97927.06
2023-04-16T02:58:14.854Z,97941.28
2023-04-16T03:03:17.731Z,97938.66
2023-04-16T03:08:20.533Z,97947.19
2023-04-16T03:13:23.137Z,97949.13
2023-04-16T03:18:25.903Z,97937.78
2023-04-16T03:23:28.766Z,97944.13
2023-04-16T03:28:31.656Z,97953.19
2023-04-16T03:33:34.289Z,97958.03
2023-04-16T03:38:37.036Z,97953.88
2023-04-16T03:43:39.769Z,97957.50
2023-04-16T03:48:42.433Z,97961.53
2023-04-16T03:53:45.434Z,97961.00
2023-04-16T03:58:49.837Z,97965.47
2023-04-16T04:03:52.583Z,97970.78
2023-04-16T04:08:55.611Z,97973.50
2023-04-16T04:13:58.693Z,97973.47
2023-04-16T04:19:01.962Z,97969.19
2023-04-16T04:24:04.575Z,97975.25
2023-04-16T04:29:09.291Z,97984.44
2023-04-16T04:34:12.279Z,97991.69
2023-04-16T04:39:15.066Z,97992.69
2023-04-16T04:44:19.532Z,97998.00
2023-04-16T04:49:22.337Z,98003.75
2023-04-16T04:54:25.145Z,98007.03
2023-04-16T04:59:29.737Z,98016.88
2023-04-16T05:04:32.781Z,98020.41
2023-04-16T05:09:35.587Z,98025.59
2023-04-16T05:14:38.095Z,98023.56
2023-04-16T05:19:40.693Z,98044.31
2023-04-16T05:24:43.227Z,98039.09
2023-04-16T05:29:46.078Z,98045.94
2023-04-16T05:34:48.617Z,98049.81
2023-04-16T05:39:51.370Z,98051.56
2023-04-16T05:44:53.960Z,98064.66
2023-04-16T05:49:56.642Z,98064.91
2023-04-16T05:55:01.957Z,98067.13
2023-04-16T06:00:05.059Z,98069.72
2023-04-16T06:05:14.678Z,98084.47
2023-04-16T06:10:17.295Z,98080.38
2023-04-16T06:15:19.968Z,98078.16
2023-04-16T06:20:22.639Z,98079.13
2023-04-16T06:25:25.382Z,98085.72
2023-04-16T06:30:28.273Z,98093.31
2023-04-16T06:35:31.185Z,98095.59
2023-04-16T06:40:33.941Z,98094.28
2023-04-16T06:45:36.617Z,98092.06
2023-04-16T06:50:40.674Z,98105.00
2023-04-16T06:55:43.260Z,98095.91
2023-04-16T07:00:46.392Z,98109.44
2023-04-16T07:05:48.980Z,98106.84
2023-04-16T07:10:52.935Z,98103.78
2023-04-16T07:15:55.861Z,98112.31
2023-04-16T07:20:58.661Z,98113.38
2023-04-16T07:26:01.474Z,98118.66
2023-04-16T07:31:04.500Z,98120.34
2023-04-16T07:36:07.486Z,98130.88
2023-04-16T07:41:10.177Z,98130.81
2023-04-16T07:46:12.777Z,98133.09
2023-04-16T07:51:15.566Z,98143.63
2023-04-16T07:56:18.098Z,98144.31
2023-04-16T08:01:20.730Z,98153.13
2023-04-16T08:06:23.370Z,98157.03
2023-04-16T08:11:26.397Z,98158.34
2023-04-16T08:16:29.432Z,98163.09
2023-04-16T08:21:32.287Z,98169.03
2023-04-16T08:26:35.107Z,98171.41
2023-04-16T08:31:37.936Z,98178.25
2023-04-16T08:36:41.721Z,98186.47
2023-04-16T08:41:46.778Z,98194.88
2023-04-16T08:46:50.868Z,98198.06
2023-04-16T08:51:57.523Z,98193.91
2023-04-16T08:57:04.070Z,98199.84
2023-04-16T09:02:07.383Z,98208.19
2023-04-16T09:07:10.990Z,98203.16
2023-04-16T09:12:13.653Z,98205.50
2023-04-16T09:17:17.172Z,98217.16
2023-04-16T09:22:19.796Z,98218.69
2023-04-16T09:27:25.384Z,98215.28
2023-04-16T09:32:29.695Z,98215.03
2023-04-16T09:37:32.721Z,98220.44
2023-04-16T09:42:37.428Z,98222.91
2023-04-16T09:47:45.670Z,98223.69
2023-04-16T09:52:51.867Z,98223.00
2023-04-16T09:58:01.861Z,98234.78
2023-04-16T10:03:06.303Z,98237.00
2023-04-16T10:08:13.439Z,98240.94
2023-04-16T10:13:17.842Z,98244.44
2023-04-16T10:18:20.933Z,98251.59
2023-04-16T10:23:23.764Z,98258.09
2023-04-16T10:28:27.279Z,98257.91
2023-04-16T10:33:35.248Z,98258.38
2023-04-16T10:38:45.174Z,98265.22
2023-04-16T10:43:52.719Z,98256.34
2023-04-16T10:48:57.138Z,98259.09
2023-04-16T10:54:12.782Z,98255.94
2023-04-16T10:59:20.061Z,98254.31
2023-04-16T11:04:25.833Z,98263.97
2023-04-16T11:09:51.445Z,98258.53
2023-04-16T11:15:06.463Z,98265.28
2023-04-16T11:20:20.943Z,98269.31
2023-04-16T11:25:31.867Z,98264.16
2023-04-16T11:30:39.231Z,98267.00
2023-04-16T11:35:43.481Z,98269.84
2023-04-16T11:40:47.921Z,98271.44
2023-04-16T11:46:10.306Z,98270.72
2023-04-16T11:51:19.860Z,98272.09
2023-04-16T11:56:34.242Z,98274.41
2023-04-16T12:01:38.076Z,98279.44
2023-04-16T12:06:41.009Z,98274.44
2023-04-16T12:11:43.897Z,98273.88
2023-04-16T12:16:46.555Z,98275.28
2023-04-16T12:21:52.067Z,98280.50
2023-04-16T12:27:03.414Z,98286.28
2023-04-16T12:32:20.899Z,98290.78
2023-04-16T12:37:23.526Z,98293.69
2023-04-16T12:42:26.309Z,98290.44
2023-04-16T12:47:28.885Z,98297.97
2023-04-16T12:52:32.024Z,98293.31
2023-04-16T12:57:34.730Z,98292.47
2023-04-16T13:02:37.732Z,98294.75
2023-04-16T13:07:40.514Z,98290.53
2023-04-16T13:12:43.093Z,98294.53
2023-04-16T13:17:46.330Z,98289.09
2023-04-16T13:22:49.134Z,98288.38
2023-04-16T13:27:51.844Z,98292.16
2023-04-16T13:32:54.472Z,98281.56
2023-04-16T13:37:57.184Z,98289.84
2023-04-16T13:43:00.123Z,98293.03
2023-04-16T13:48:03.460Z,98298.50
2023-04-16T13:53:06.591Z,98295.84
2023-04-16T13:58:09.776Z,98290.31
2023-04-16T14:03:12.513Z,98295.59
2023-04-16T14:08:16.648Z,98297.13
2023-04-16T14:13:19.305Z,98296.34
2023-04-16T14:18:22.049Z,98291.63
2023-04-16T14:23:24.807Z,98297.69
2023-04-16T14:28:27.416Z,98296.03
2023-04-16T14:33:30.298Z,98296.47
2023-04-16T14:38:33.292Z,98297.38
2023-04-16T14:43:36.550Z,98292.63
2023-04-16T14:48:40.176Z,98296.59
2023-04-16T14:53:42.986Z,98303.16
2023-04-16T14:58:45.772Z,98295.66
2023-04-16T15:03:48.659Z,98299.63
2023-04-16T15:08:51.339Z,98299.75
2023-04-16T15:13:54.204Z,98307.13
2023-04-16T15:18:56.817Z,98302.72
2023-04-16T15:23:59.894Z,98300.31
2023-04-16T15:29:02.916Z,98308.03
2023-04-16T15:34:05.668Z,98303.88
2023-04-16T15:39:08.872Z,98307.63
2023-04-16T15:44:11.655Z,98306.22
2023-04-16T15:49:14.238Z,98309.03
2023-04-16T15:54:18.524Z,98313.81
2023-04-16T15:59:21.254Z,98310.59
2023-04-16T16:04:26.551Z,98314.44
2023-04-16T16:09:29.507Z,98314.44
2023-04-16T16:14:33.279Z,98317.84
2023-04-16T16:19:35.831Z,98319.00
2023-04-16T16:24:38.888Z,98325.78
2023-04-16T16:29:41.669Z,98325.69
2023-04-16T16:34:44.340Z,98322.91
2023-04-16T16:39:47.089Z,98329.38
2023-04-16T16:44:49.767Z,98327.69
2023-04-16T16:49:54.869Z,98326.38
2023-04-16T16:54:58.153Z,98336.13
2023-04-16T17:00:01.402Z,98336.69
2023-04-16T17:05:05.058Z,98334.72
2023-04-16T17:10:08.262Z,98338.28
2023-04-16T17:15:11.613Z,98335.34
2023-04-16T17:20:14.483Z,98338.06
2023-04-16T17:25:17.267Z,98339.13
2023-04-16T17:30:20.009Z,98345.97
2023-04-16T17:35:22.976Z,98344.09
2023-04-16T17:40:25.769Z,98339.44
2023-04-16T17:45:28.516Z,98351.06
2023-04-16T17:50:31.833Z,98351.25
2023-04-16T17:55:34.654Z,98353.09
2023-04-16T18:00:37.449Z,98354.50
2023-04-16T18:05:41.037Z,98359.81
2023-04-16T18:10:43.589Z,98356.25
2023-04-16T18:15:46.462Z,98363.22
2023-04-16T18:20:49.229Z,98366.22
2023-04-16T18:25:52.214Z,98370.13
2023-04-16T18:30:58.707Z,98379.56
2023-04-16T18:36:02.701Z,98375.31
2023-04-16T18:41:05.438Z,98389.47
2023-04-16T18:46:08.051Z,98396.00
2023-04-16T18:51:11.899Z,98394.31
2023-04-16T18:56:15.211Z,98402.00
2023-04-16T19:01:18.071Z,98404.97
2023-04-16T19:06:20.829Z,98409.63
2023-04-16T19:11:23.626Z,98409.69
2023-04-16T19:16:26.522Z,98407.75
2023-04-16T19:21:29.516Z,98417.44
2023-04-16T19:26:32.598Z,98413.03
2023-04-16T19:31:35.262Z,98417.38
2023-04-16T19:36:38.296Z,98419.22
2023-04-16T19:41:41.003Z,98425.25
2023-04-16T19:46:43.695Z,98422.91
2023-04-16T19:51:46.586Z,98426.75
2023-04-16T19:56:53.383Z,98429.03
2023-04-16T20:01:56.060Z,98427.38
2023-04-16T20:06:58.964Z,98420.97
2023-04-16T20:12:02.521Z,98434.00
2023-04-16T20:17:10.213Z,98430.50
2023-04-16T20:22:13.479Z,98433.47
2023-04-16T20:27:17.084Z,98426.16
2023-04-16T20:32:19.766Z,98431.22
2023-04-16T20:37:22.741Z,98427.94
2023-04-16T20:42:26.540Z,98435.56
2023-04-16T20:47:29.256Z,98431.13
2023-04-16T20:52:32.854Z,98427.81
2023-04-16T20:57:35.518Z,98418.94
2023-04-16T21:02:38.549Z,98432.06
2023-04-16T21:07:41.998Z,98417.72
2023-04-16T21:12:44.786Z,98421.38
2023-04-16T21:17:47.416Z,98416.63
2023-04-16T21:22:51.399Z,98413.56
2023-04-16T21:27:54.080Z,98417.75
2023-04-16T21:32:56.782Z,98414.81
2023-04-16T21:37:59.512Z,98421.09
2023-04-16T21:43:02.488Z,98414.81
2023-04-16T21:48:05.381Z,98417.59
2023-04-16T21:53:08.075Z,98423.91
2023-04-16T21:58:10.934Z,98422.41
2023-04-16T22:03:13.868Z,98416.81
2023-04-16T22:08:24.448Z,98419.03
2023-04-16T22:13:34.118Z,98415.53
2023-04-16T22:18:37.621Z,98411.59
2023-04-16T22:23:40.223Z,98408.75
2023-04-16T22:28:42.795Z,98410.59
2023-04-16T22:33:45.581Z,98414.81
2023-04-16T22:38:48.467Z,98409.47
2023-04-16T22:43:52.487Z,98401.72
2023-04-16T22:48:55.317Z,98399.19
2023-04-16T22:53:58.056Z,98405.84
2023-04-16T22:59:00.865Z,98406.03
2023-04-16T23:04:03.871Z,98410.13
2023-04-16T23:09:06.733Z,98409.31
2023-04-16T23:14:09.904Z,98409.72
2023-04-16T23:19:15.099Z,98407.31
2023-04-16T23:24:17.669Z,98410.66
2023-04-16T23:29:21.040Z,98413.75
2023-04-16T23:34:23.661Z,98407.72
2023-04-16T23:39:26.346Z,98401.59
2023-04-16T23:44:29.225Z,98406.59
2023-04-16T23:49:32.109Z,98401.00
2023-04-16T23:54:34.870Z,98395.69
2023-04-16T23:59:37.382Z,98395.50
